sensor_id;sensor_type;location;lat;lon;timestamp;temperature;humidity
62339;DHT22;48368;53.406;6.214;2023-01-15T01:21:25;6.20;99.90
62339;DHT22;48368;53.406;6.214;2023-01-15T01:39:38;6.10;99.90
62339;DHT22;48368;53.406;6.214;2023-01-15T01:42:15;6.20;99.90
62339;DHT22;48368;53.406;6.214;2023-01-15T01:47:21;6.10;99.90
62339;DHT22;48368;53.406;6.214;2023-01-15T01:49:51;6.10;99.90
62339;DHT22;48368;53.406;6.214;2023-01-15T01:52:26;6.00;99.90
62339;DHT22;48368;53.406;6.214;2023-01-15T01:55:01;6.10;99.90
62339;DHT22;48368;53.406;6.214;2023-01-15T01:57:27;6.10;99.90
62339;DHT22;48368;53.406;6.214;2023-01-15T01:59:53;6.10;99.90
62339;DHT22;48368;53.406;6.214;2023-01-15T02:02:22;6.00;99.90
62339;DHT22;48368;53.406;6.214;2023-01-15T02:04:55;6.00;99.90
62339;DHT22;48368;53.406;6.214;2023-01-15T02:07:25;6.00;99.90
62339;DHT22;48368;53.406;6.214;2023-01-15T02:09:53;6.10;99.90
62339;DHT22;48368;53.406;6.214;2023-01-15T02:12:24;6.00;99.90
62339;DHT22;48368;53.406;6.214;2023-01-15T02:30:27;6.10;99.90
62339;DHT22;48368;53.406;6.214;2023-01-15T02:32:59;6.10;99.90
62339;DHT22;48368;53.406;6.214;2023-01-15T02:38:40;6.00;99.90
62339;DHT22;48368;53.406;6.214;2023-01-15T02:41:47;6.00;99.90
62339;DHT22;48368;53.406;6.214;2023-01-15T03:32:42;5.90;99.90
62339;DHT22;48368;53.406;6.214;2023-01-15T03:50:36;5.90;99.90
62339;DHT22;48368;53.406;6.214;2023-01-15T03:57:10;5.90;99.90
62339;DHT22;48368;53.406;6.214;2023-01-15T03:59:47;5.80;99.90
62339;DHT22;48368;53.406;6.214;2023-01-15T04:08:45;5.80;99.90
62339;DHT22;48368;53.406;6.214;2023-01-15T04:11:42;5.80;99.90
62339;DHT22;48368;53.406;6.214;2023-01-15T04:18:22;5.70;99.90
62339;DHT22;48368;53.406;6.214;2023-01-15T04:21:22;5.70;99.90
62339;DHT22;48368;53.406;6.214;2023-01-15T04:23:48;5.70;99.90
62339;DHT22;48368;53.406;6.214;2023-01-15T04:26:20;5.60;99.90
62339;DHT22;48368;53.406;6.214;2023-01-15T04:37:01;5.60;99.90
62339;DHT22;48368;53.406;6.214;2023-01-15T04:40:04;5.50;99.90
62339;DHT22;48368;53.406;6.214;2023-01-15T04:42:32;5.60;99.90
62339;DHT22;48368;53.406;6.214;2023-01-15T04:51:14;5.50;99.90
62339;DHT22;48368;53.406;6.214;2023-01-15T05:13:06;5.30;99.90
62339;DHT22;48368;53.406;6.214;2023-01-15T05:18:54;5.40;99.90
62339;DHT22;48368;53.406;6.214;2023-01-15T05:21:26;5.40;99.90
62339;DHT22;48368;53.406;6.214;2023-01-15T05:23:55;5.40;99.90
62339;DHT22;48368;53.406;6.214;2023-01-15T05:26:22;5.40;99.90
62339;DHT22;48368;53.406;6.214;2023-01-15T05:28:48;5.30;99.90
62339;DHT22;48368;53.406;6.214;2023-01-15T05:48:46;5.30;99.90
62339;DHT22;48368;53.406;6.214;2023-01-15T05:52:24;5.30;99.90
62339;DHT22;48368;53.406;6.214;2023-01-15T06:23:33;5.20;99.90
62339;DHT22;48368;53.406;6.214;2023-01-15T06:29:09;5.20;99.90
62339;DHT22;48368;53.406;6.214;2023-01-15T06:31:34;5.20;99.90
62339;DHT22;48368;53.406;6.214;2023-01-15T06:34:00;5.20;99.90
62339;DHT22;48368;53.406;6.214;2023-01-15T06:36:28;5.20;99.90
62339;DHT22;48368;53.406;6.214;2023-01-15T06:52:37;5.20;99.90
62339;DHT22;48368;53.406;6.214;2023-01-15T07:02:49;5.10;99.90
62339;DHT22;48368;53.406;6.214;2023-01-15T07:05:15;5.10;99.90
62339;DHT22;48368;53.406;6.214;2023-01-15T07:13:33;5.20;99.90
62339;DHT22;48368;53.406;6.214;2023-01-15T07:31:08;5.00;99.90
62339;DHT22;48368;53.406;6.214;2023-01-15T07:41:21;4.90;99.90
62339;DHT22;48368;53.406;6.214;2023-01-15T07:44:24;4.80;99.90
62339;DHT22;48368;53.406;6.214;2023-01-15T07:47:31;4.80;99.90
62339;DHT22;48368;53.406;6.214;2023-01-15T07:50:18;4.80;99.90
62339;DHT22;48368;53.406;6.214;2023-01-15T07:52:45;4.80;99.90
62339;DHT22;48368;53.406;6.214;2023-01-15T07:55:16;4.70;99.90
62339;DHT22;48368;53.406;6.214;2023-01-15T07:57:42;4.80;99.90
62339;DHT22;48368;53.406;6.214;2023-01-15T08:00:13;4.90;99.90
62339;DHT22;48368;53.406;6.214;2023-01-15T08:02:39;4.90;99.90
62339;DHT22;48368;53.406;6.214;2023-01-15T08:05:08;4.90;99.90
62339;DHT22;48368;53.406;6.214;2023-01-15T08:07:38;4.90;99.90
62339;DHT22;48368;53.406;6.214;2023-01-15T08:10:06;4.90;99.90
62339;DHT22;48368;53.406;6.214;2023-01-15T08:12:35;4.90;99.90
62339;DHT22;48368;53.406;6.214;2023-01-15T08:17:55;4.90;99.90
62339;DHT22;48368;53.406;6.214;2023-01-15T08:20:25;5.00;99.90
62339;DHT22;48368;53.406;6.214;2023-01-15T08:22:54;4.90;99.90
62339;DHT22;48368;53.406;6.214;2023-01-15T08:25:22;4.90;99.90
62339;DHT22;48368;53.406;6.214;2023-01-15T08:27:49;4.90;99.90
62339;DHT22;48368;53.406;6.214;2023-01-15T08:30:21;4.90;99.90
62339;DHT22;48368;53.406;6.214;2023-01-15T08:32:49;4.90;99.90
62339;DHT22;48368;53.406;6.214;2023-01-15T08:35:15;4.90;99.90
62339;DHT22;48368;53.406;6.214;2023-01-15T08:37:41;5.00;99.90
62339;DHT22;48368;53.406;6.214;2023-01-15T08:43:57;5.00;99.90
62339;DHT22;48368;53.406;6.214;2023-01-15T08:46:24;4.90;99.90
62339;DHT22;48368;53.406;6.214;2023-01-15T08:52:15;5.00;99.90
62339;DHT22;48368;53.406;6.214;2023-01-15T08:54:41;4.90;99.90
62339;DHT22;48368;53.406;6.214;2023-01-15T09:11:44;5.20;99.90
62339;DHT22;48368;53.406;6.214;2023-01-15T09:17:47;5.20;99.90
62339;DHT22;48368;53.406;6.214;2023-01-15T09:33:36;5.20;99.90
62339;DHT22;48368;53.406;6.214;2023-01-15T09:36:02;5.30;99.90
62339;DHT22;48368;53.406;6.214;2023-01-15T09:55:59;5.80;99.90
62339;DHT22;48368;53.406;6.214;2023-01-15T10:05:27;5.80;99.90
62339;DHT22;48368;53.406;6.214;2023-01-15T10:15:35;6.00;99.90
62339;DHT22;48368;53.406;6.214;2023-01-15T10:25:16;6.40;99.90
62339;DHT22;48368;53.406;6.214;2023-01-15T10:27:46;6.30;99.90
62339;DHT22;48368;53.406;6.214;2023-01-15T10:32:54;6.20;99.90
62339;DHT22;48368;53.406;6.214;2023-01-15T10:35:51;6.30;99.90
62339;DHT22;48368;53.406;6.214;2023-01-15T10:41:23;6.40;99.90
62339;DHT22;48368;53.406;6.214;2023-01-15T10:46:37;6.70;99.90
62339;DHT22;48368;53.406;6.214;2023-01-15T10:49:40;6.70;99.90
62339;DHT22;48368;53.406;6.214;2023-01-15T11:03:01;6.80;99.90
62339;DHT22;48368;53.406;6.214;2023-01-15T11:09:01;6.80;99.90
62339;DHT22;48368;53.406;6.214;2023-01-15T11:14:36;6.70;99.90
62339;DHT22;48368;53.406;6.214;2023-01-15T11:17:22;6.70;99.90
62339;DHT22;48368;53.406;6.214;2023-01-15T11:23:44;6.50;99.90
62339;DHT22;48368;53.406;6.214;2023-01-15T11:36:35;6.40;99.90
62339;DHT22;48368;53.406;6.214;2023-01-15T11:39:24;6.40;99.90
62339;DHT22;48368;53.406;6.214;2023-01-15T11:45:56;6.40;99.90
62339;DHT22;48368;53.406;6.214;2023-01-15T11:48:49;6.40;99.90
62339;DHT22;48368;53.406;6.214;2023-01-15T11:51:39;6.30;99.90
62339;DHT22;48368;53.406;6.214;2023-01-15T11:54:47;6.30;99.90
62339;DHT22;48368;53.406;6.214;2023-01-15T11:57:32;6.20;99.90
62339;DHT22;48368;53.406;6.214;2023-01-15T12:24:40;6.20;99.90
62339;DHT22;48368;53.406;6.214;2023-01-15T12:59:40;5.90;99.90
62339;DHT22;48368;53.406;6.214;2023-01-15T13:12:01;6.00;99.90
62339;DHT22;48368;53.406;6.214;2023-01-15T13:14:49;5.90;99.90
62339;DHT22;48368;53.406;6.214;2023-01-15T13:17:40;6.00;99.90
62339;DHT22;48368;53.406;6.214;2023-01-15T13:48:06;6.20;99.90
62339;DHT22;48368;53.406;6.214;2023-01-15T13:50:40;6.10;99.90
62339;DHT22;48368;53.406;6.214;2023-01-15T13:53:35;6.10;99.90
62339;DHT22;48368;53.406;6.214;2023-01-15T14:09:36;6.30;99.90
62339;DHT22;48368;53.406;6.214;2023-01-15T14:29:48;6.30;99.90
62339;DHT22;48368;53.406;6.214;2023-01-15T14:35:19;6.30;99.90
62339;DHT22;48368;53.406;6.214;2023-01-15T14:38:02;6.30;99.90
62339;DHT22;48368;53.406;6.214;2023-01-15T14:40:33;6.30;99.90
62339;DHT22;48368;53.406;6.214;2023-01-15T14:43:06;6.20;99.90
62339;DHT22;48368;53.406;6.214;2023-01-15T14:45:38;6.20;99.90
62339;DHT22;48368;53.406;6.214;2023-01-15T14:51:15;6.20;99.90
62339;DHT22;48368;53.406;6.214;2023-01-15T14:53:58;6.10;99.90
62339;DHT22;48368;53.406;6.214;2023-01-15T14:56:41;6.10;99.90
62339;DHT22;48368;53.406;6.214;2023-01-15T14:59:56;6.20;99.90
62339;DHT22;48368;53.406;6.214;2023-01-15T15:06:16;6.10;99.90
62339;DHT22;48368;53.406;6.214;2023-01-15T15:09:24;6.00;99.90
62339;DHT22;48368;53.406;6.214;2023-01-15T15:14:59;6.10;99.90
62339;DHT22;48368;53.406;6.214;2023-01-15T15:17:30;6.10;99.90
62339;DHT22;48368;53.406;6.214;2023-01-15T15:20:17;6.10;99.90
62339;DHT22;48368;53.406;6.214;2023-01-15T15:22:45;6.10;99.90
62339;DHT22;48368;53.406;6.214;2023-01-15T15:25:18;6.10;99.90
62339;DHT22;48368;53.406;6.214;2023-01-15T15:31:55;6.00;99.90
62339;DHT22;48368;53.406;6.214;2023-01-15T15:34:56;6.00;99.90
62339;DHT22;48368;53.406;6.214;2023-01-15T15:37:42;6.00;99.90
62339;DHT22;48368;53.406;6.214;2023-01-15T15:40:16;5.90;99.90
62339;DHT22;48368;53.406;6.214;2023-01-15T15:45:54;5.90;99.90
62339;DHT22;48368;53.406;6.214;2023-01-15T15:48:39;5.80;99.90
62339;DHT22;48368;53.406;6.214;2023-01-15T15:57:14;5.90;99.90
62339;DHT22;48368;53.406;6.214;2023-01-15T15:59:55;5.80;99.90
62339;DHT22;48368;53.406;6.214;2023-01-15T16:02:32;5.80;99.90
62339;DHT22;48368;53.406;6.214;2023-01-15T16:05:22;5.80;99.90
62339;DHT22;48368;53.406;6.214;2023-01-15T16:07:48;5.80;99.90
62339;DHT22;48368;53.406;6.214;2023-01-15T16:10:42;5.80;99.90
62339;DHT22;48368;53.406;6.214;2023-01-15T16:16:12;5.70;99.90
62339;DHT22;48368;53.406;6.214;2023-01-15T16:18:50;5.70;99.90
62339;DHT22;48368;53.406;6.214;2023-01-15T16:21:18;5.60;99.90
62339;DHT22;48368;53.406;6.214;2023-01-15T16:24:00;5.60;99.90
62339;DHT22;48368;53.406;6.214;2023-01-15T16:26:41;5.60;99.90
62339;DHT22;48368;53.406;6.214;2023-01-15T16:29:34;5.60;99.90
62339;DHT22;48368;53.406;6.214;2023-01-15T16:32:08;5.60;99.90
62339;DHT22;48368;53.406;6.214;2023-01-15T16:34:37;5.70;99.90
62339;DHT22;48368;53.406;6.214;2023-01-15T16:37:25;5.50;99.90
62339;DHT22;48368;53.406;6.214;2023-01-15T16:40:56;5.50;99.90
62339;DHT22;48368;53.406;6.214;2023-01-15T16:50:25;5.50;99.90
62339;DHT22;48368;53.406;6.214;2023-01-15T16:56:04;5.30;99.90
62339;DHT22;48368;53.406;6.214;2023-01-15T16:58:40;5.30;99.90
62339;DHT22;48368;53.406;6.214;2023-01-15T17:01:50;5.30;99.90
62339;DHT22;48368;53.406;6.214;2023-01-15T17:35:45;5.00;99.90
62339;DHT22;48368;53.406;6.214;2023-01-15T17:50:51;5.00;99.90
62339;DHT22;48368;53.406;6.214;2023-01-15T17:53:24;5.00;99.90
62339;DHT22;48368;53.406;6.214;2023-01-15T18:13:03;4.80;99.90
62339;DHT22;48368;53.406;6.214;2023-01-15T18:15:32;4.80;99.90
62339;DHT22;48368;53.406;6.214;2023-01-15T18:18:25;4.80;99.90
62339;DHT22;48368;53.406;6.214;2023-01-15T18:21:21;4.80;99.90
62339;DHT22;48368;53.406;6.214;2023-01-15T18:24:24;4.70;99.90
62339;DHT22;48368;53.406;6.214;2023-01-15T18:30:16;4.60;99.90
62339;DHT22;48368;53.406;6.214;2023-01-15T18:32:51;4.60;99.90
62339;DHT22;48368;53.406;6.214;2023-01-15T18:35:43;4.50;99.90
62339;DHT22;48368;53.406;6.214;2023-01-15T18:38:14;4.50;99.90
62339;DHT22;48368;53.406;6.214;2023-01-15T18:40:40;4.60;99.90
62339;DHT22;48368;53.406;6.214;2023-01-15T18:43:07;4.50;99.90
62339;DHT22;48368;53.406;6.214;2023-01-15T18:45:51;4.50;99.90
62339;DHT22;48368;53.406;6.214;2023-01-15T18:48:35;4.40;99.90
62339;DHT22;48368;53.406;6.214;2023-01-15T18:51:10;4.50;99.90
62339;DHT22;48368;53.406;6.214;2023-01-15T18:53:36;4.40;99.90
62339;DHT22;48368;53.406;6.214;2023-01-15T18:56:04;4.40;99.90
62339;DHT22;48368;53.406;6.214;2023-01-15T18:58:31;4.50;99.90
62339;DHT22;48368;53.406;6.214;2023-01-15T19:01:06;4.40;99.90
62339;DHT22;48368;53.406;6.214;2023-01-15T19:03:33;4.30;99.90
62339;DHT22;48368;53.406;6.214;2023-01-15T19:06:06;4.30;99.90
62339;DHT22;48368;53.406;6.214;2023-01-15T19:08:34;4.40;99.90
62339;DHT22;48368;53.406;6.214;2023-01-15T19:10:59;4.30;99.90
62339;DHT22;48368;53.406;6.214;2023-01-15T19:13:28;4.20;99.90
62339;DHT22;48368;53.406;6.214;2023-01-15T19:15:56;4.40;99.90
62339;DHT22;48368;53.406;6.214;2023-01-15T19:19:05;4.30;99.90
62339;DHT22;48368;53.406;6.214;2023-01-15T19:21:35;4.20;99.90
62339;DHT22;48368;53.406;6.214;2023-01-15T19:24:03;4.10;99.90
62339;DHT22;48368;53.406;6.214;2023-01-15T19:26:31;4.20;99.90
62339;DHT22;48368;53.406;6.214;2023-01-15T19:29:05;4.20;99.90
62339;DHT22;48368;53.406;6.214;2023-01-15T19:34:14;4.10;99.90
62339;DHT22;48368;53.406;6.214;2023-01-15T19:36:42;4.20;99.90
62339;DHT22;48368;53.406;6.214;2023-01-15T19:39:10;4.20;99.90
62339;DHT22;48368;53.406;6.214;2023-01-15T19:41:38;4.10;99.90
62339;DHT22;48368;53.406;6.214;2023-01-15T19:44:40;4.20;99.90
62339;DHT22;48368;53.406;6.214;2023-01-15T19:47:32;4.20;99.90
62339;DHT22;48368;53.406;6.214;2023-01-15T19:50:35;4.20;99.90
62339;DHT22;48368;53.406;6.214;2023-01-15T19:53:01;4.20;99.90
62339;DHT22;48368;53.406;6.214;2023-01-15T19:55:30;4.20;99.90
62339;DHT22;48368;53.406;6.214;2023-01-15T19:57:59;4.00;99.90
62339;DHT22;48368;53.406;6.214;2023-01-15T20:00:26;4.10;99.90
62339;DHT22;48368;53.406;6.214;2023-01-15T20:02:53;4.10;99.90
62339;DHT22;48368;53.406;6.214;2023-01-15T20:05:23;4.20;99.90
62339;DHT22;48368;53.406;6.214;2023-01-15T20:07:49;4.20;99.90
62339;DHT22;48368;53.406;6.214;2023-01-15T20:10:19;4.10;99.90
62339;DHT22;48368;53.406;6.214;2023-01-15T20:12:48;4.20;99.90
62339;DHT22;48368;53.406;6.214;2023-01-15T20:15:34;4.30;99.90
62339;DHT22;48368;53.406;6.214;2023-01-15T20:18:00;4.10;99.90
62339;DHT22;48368;53.406;6.214;2023-01-15T20:20:26;4.20;99.90
62339;DHT22;48368;53.406;6.214;2023-01-15T20:22:54;4.20;99.90
62339;DHT22;48368;53.406;6.214;2023-01-15T20:25:23;4.20;99.90
62339;DHT22;48368;53.406;6.214;2023-01-15T20:27:52;4.30;99.90
62339;DHT22;48368;53.406;6.214;2023-01-15T20:30:18;4.20;99.90
62339;DHT22;48368;53.406;6.214;2023-01-15T20:32:55;4.30;99.90
62339;DHT22;48368;53.406;6.214;2023-01-15T20:35:26;4.20;99.90
62339;DHT22;48368;53.406;6.214;2023-01-15T20:37:55;4.30;99.90
62339;DHT22;48368;53.406;6.214;2023-01-15T20:40:25;4.40;99.90
62339;DHT22;48368;53.406;6.214;2023-01-15T20:42:52;4.50;99.90
62339;DHT22;48368;53.406;6.214;2023-01-15T20:48:51;4.50;99.90
62339;DHT22;48368;53.406;6.214;2023-01-15T20:51:35;4.70;99.90
62339;DHT22;48368;53.406;6.214;2023-01-15T20:56:48;4.60;99.90
62339;DHT22;48368;53.406;6.214;2023-01-15T20:59:20;4.80;99.90
62339;DHT22;48368;53.406;6.214;2023-01-15T21:01:46;4.80;99.90
62339;DHT22;48368;53.406;6.214;2023-01-15T21:04:11;4.70;99.90
62339;DHT22;48368;53.406;6.214;2023-01-15T21:06:40;4.60;99.90
62339;DHT22;48368;53.406;6.214;2023-01-15T21:09:06;4.60;99.90
62339;DHT22;48368;53.406;6.214;2023-01-15T21:11:35;4.70;99.90
62339;DHT22;48368;53.406;6.214;2023-01-15T21:14:00;4.90;99.90
62339;DHT22;48368;53.406;6.214;2023-01-15T21:16:38;4.80;99.90
62339;DHT22;48368;53.406;6.214;2023-01-15T21:19:04;4.80;99.90
62339;DHT22;48368;53.406;6.214;2023-01-15T21:21:30;4.80;99.90
62339;DHT22;48368;53.406;6.214;2023-01-15T21:23:58;5.00;99.90
62339;DHT22;48368;53.406;6.214;2023-01-15T21:26:24;4.90;99.90
62339;DHT22;48368;53.406;6.214;2023-01-15T21:28:58;4.90;99.90
62339;DHT22;48368;53.406;6.214;2023-01-15T21:53:56;4.90;99.90
62339;DHT22;48368;53.406;6.214;2023-01-15T22:12:38;4.70;99.90
62339;DHT22;48368;53.406;6.214;2023-01-15T22:15:41;4.70;99.90
62339;DHT22;48368;53.406;6.214;2023-01-15T22:25:01;4.70;99.90
62339;DHT22;48368;53.406;6.214;2023-01-15T22:27:29;4.50;99.90
62339;DHT22;48368;53.406;6.214;2023-01-15T22:29:55;4.70;99.90
62339;DHT22;48368;53.406;6.214;2023-01-15T22:32:21;4.60;99.90
62339;DHT22;48368;53.406;6.214;2023-01-15T22:34:46;4.60;99.90
62339;DHT22;48368;53.406;6.214;2023-01-15T23:02:30;4.50;99.90
62339;DHT22;48368;53.406;6.214;2023-01-15T23:05:26;4.50;99.90
62339;DHT22;48368;53.406;6.214;2023-01-15T23:12:43;4.40;99.90
62339;DHT22;48368;53.406;6.214;2023-01-15T23:15:21;4.40;99.90
62339;DHT22;48368;53.406;6.214;2023-01-15T23:25:31;4.40;99.90
62339;DHT22;48368;53.406;6.214;2023-01-15T23:34:33;4.30;99.90
62339;DHT22;48368;53.406;6.214;2023-01-15T23:37:01;4.20;99.90
62339;DHT22;48368;53.406;6.214;2023-01-15T23:39:34;4.30;99.90
62339;DHT22;48368;53.406;6.214;2023-01-15T23:41:59;4.10;99.90
62339;DHT22;48368;53.406;6.214;2023-01-15T23:44:43;4.20;99.90
62339;DHT22;48368;53.406;6.214;2023-01-15T23:47:34;4.10;99.90
62339;DHT22;48368;53.406;6.214;2023-01-15T23:50:18;4.30;99.90
62339;DHT22;48368;53.406;6.214;2023-01-15T23:55:19;4.20;99.90
62339;DHT22;48368;53.406;6.214;2023-01-15T23:57:45;4.30;99.90
